sensor_id;sensor_type;location;lat;lon;timestamp;P1;durP1;ratioP1;P2;durP2;ratioP2
25049;SDS011;13046;49.814;9.918;2023-05-24T00:00:10;9.55;;;6.90;;
25049;SDS011;13046;49.814;9.918;2023-05-24T00:02:40;14.52;;;7.82;;
25049;SDS011;13046;49.814;9.918;2023-05-24T00:05:09;9.50;;;7.43;;
25049;SDS011;13046;49.814;9.918;2023-05-24T00:07:38;9.13;;;7.15;;
25049;SDS011;13046;49.814;9.918;2023-05-24T00:10:04;10.82;;;7.30;;
25049;SDS011;13046;49.814;9.918;2023-05-24T00:12:30;7.90;;;6.90;;
25049;SDS011;13046;49.814;9.918;2023-05-24T00:14:56;10.75;;;8.13;;
25049;SDS011;13046;49.814;9.918;2023-05-24T00:17:22;13.63;;;7.05;;
25049;SDS011;13046;49.814;9.918;2023-05-24T00:19:48;12.23;;;7.13;;
25049;SDS011;13046;49.814;9.918;2023-05-24T00:22:14;18.30;;;7.65;;
25049;SDS011;13046;49.814;9.918;2023-05-24T00:24:40;10.90;;;6.95;;
25049;SDS011;13046;49.814;9.918;2023-05-24T00:27:06;13.77;;;8.10;;
25049;SDS011;13046;49.814;9.918;2023-05-24T00:29:31;12.57;;;7.40;;
25049;SDS011;13046;49.814;9.918;2023-05-24T00:31:58;10.82;;;7.63;;
25049;SDS011;13046;49.814;9.918;2023-05-24T00:34:24;9.20;;;6.78;;
25049;SDS011;13046;49.814;9.918;2023-05-24T00:36:50;7.55;;;6.85;;
25049;SDS011;13046;49.814;9.918;2023-05-24T00:39:16;8.65;;;6.80;;
25049;SDS011;13046;49.814;9.918;2023-05-24T00:41:41;11.70;;;7.13;;
25049;SDS011;13046;49.814;9.918;2023-05-24T00:44:08;7.97;;;6.65;;
25049;SDS011;13046;49.814;9.918;2023-05-24T00:46:35;9.23;;;6.63;;
25049;SDS011;13046;49.814;9.918;2023-05-24T00:49:01;7.85;;;6.40;;
25049;SDS011;13046;49.814;9.918;2023-05-24T00:51:28;12.65;;;7.93;;
25049;SDS011;13046;49.814;9.918;2023-05-24T00:53:55;7.95;;;7.10;;
25049;SDS011;13046;49.814;9.918;2023-05-24T00:56:21;14.40;;;8.90;;
25049;SDS011;13046;49.814;9.918;2023-05-24T00:58:47;9.40;;;6.70;;
25049;SDS011;13046;49.814;9.918;2023-05-24T01:01:15;13.25;;;6.85;;
25049;SDS011;13046;49.814;9.918;2023-05-24T01:03:40;10.13;;;7.72;;
25049;SDS011;13046;49.814;9.918;2023-05-24T01:06:07;8.90;;;7.47;;
25049;SDS011;13046;49.814;9.918;2023-05-24T01:11:34;13.27;;;7.50;;
25049;SDS011;13046;49.814;9.918;2023-05-24T01:14:40;11.55;;;6.63;;
25049;SDS011;13046;49.814;9.918;2023-05-24T01:17:26;14.18;;;7.43;;
25049;SDS011;13046;49.814;9.918;2023-05-24T01:20:02;12.35;;;7.47;;
25049;SDS011;13046;49.814;9.918;2023-05-24T01:25:02;13.82;;;7.40;;
25049;SDS011;13046;49.814;9.918;2023-05-24T01:27:38;11.85;;;8.60;;
25049;SDS011;13046;49.814;9.918;2023-05-24T01:30:05;19.20;;;7.80;;
25049;SDS011;13046;49.814;9.918;2023-05-24T01:32:31;8.55;;;6.90;;
25049;SDS011;13046;49.814;9.918;2023-05-24T01:34:57;12.73;;;6.85;;
25049;SDS011;13046;49.814;9.918;2023-05-24T01:37:23;10.48;;;7.20;;
25049;SDS011;13046;49.814;9.918;2023-05-24T01:39:48;12.15;;;7.57;;
25049;SDS011;13046;49.814;9.918;2023-05-24T01:42:19;11.93;;;7.13;;
25049;SDS011;13046;49.814;9.918;2023-05-24T01:45:13;13.02;;;7.65;;
25049;SDS011;13046;49.814;9.918;2023-05-24T01:48:00;9.73;;;7.28;;
25049;SDS011;13046;49.814;9.918;2023-05-24T01:50:59;10.20;;;7.90;;
25049;SDS011;13046;49.814;9.918;2023-05-24T01:53:31;16.45;;;9.73;;
25049;SDS011;13046;49.814;9.918;2023-05-24T01:56:00;10.30;;;7.70;;
25049;SDS011;13046;49.814;9.918;2023-05-24T01:58:29;10.15;;;8.10;;
25049;SDS011;13046;49.814;9.918;2023-05-24T02:00:57;8.38;;;7.55;;
25049;SDS011;13046;49.814;9.918;2023-05-24T02:03:24;8.82;;;7.47;;
25049;SDS011;13046;49.814;9.918;2023-05-24T02:05:49;10.52;;;6.80;;
25049;SDS011;13046;49.814;9.918;2023-05-24T02:08:15;8.48;;;6.72;;
25049;SDS011;13046;49.814;9.918;2023-05-24T02:10:41;13.52;;;7.55;;
25049;SDS011;13046;49.814;9.918;2023-05-24T02:13:06;10.60;;;7.22;;
25049;SDS011;13046;49.814;9.918;2023-05-24T02:15:33;9.88;;;7.55;;
25049;SDS011;13046;49.814;9.918;2023-05-24T02:17:59;12.43;;;7.15;;
25049;SDS011;13046;49.814;9.918;2023-05-24T02:20:26;9.23;;;7.30;;
25049;SDS011;13046;49.814;9.918;2023-05-24T02:22:55;11.02;;;7.38;;
25049;SDS011;13046;49.814;9.918;2023-05-24T02:25:24;11.82;;;7.78;;
25049;SDS011;13046;49.814;9.918;2023-05-24T02:27:50;10.60;;;7.22;;
25049;SDS011;13046;49.814;9.918;2023-05-24T02:30:16;12.57;;;7.90;;
25049;SDS011;13046;49.814;9.918;2023-05-24T02:32:42;11.85;;;7.70;;
25049;SDS011;13046;49.814;9.918;2023-05-24T02:35:08;16.55;;;7.78;;
25049;SDS011;13046;49.814;9.918;2023-05-24T02:37:33;13.05;;;7.47;;
25049;SDS011;13046;49.814;9.918;2023-05-24T02:39:59;15.15;;;7.43;;
25049;SDS011;13046;49.814;9.918;2023-05-24T02:42:25;14.18;;;6.95;;
25049;SDS011;13046;49.814;9.918;2023-05-24T02:44:51;10.02;;;7.72;;
25049;SDS011;13046;49.814;9.918;2023-05-24T02:47:17;10.15;;;7.13;;
25049;SDS011;13046;49.814;9.918;2023-05-24T02:49:43;11.70;;;6.85;;
25049;SDS011;13046;49.814;9.918;2023-05-24T02:52:08;11.90;;;8.23;;
25049;SDS011;13046;49.814;9.918;2023-05-24T02:54:34;17.40;;;7.22;;
25049;SDS011;13046;49.814;9.918;2023-05-24T02:57:02;13.60;;;7.32;;
25049;SDS011;13046;49.814;9.918;2023-05-24T02:59:31;12.30;;;7.05;;
25049;SDS011;13046;49.814;9.918;2023-05-24T03:02:00;11.80;;;7.55;;
25049;SDS011;13046;49.814;9.918;2023-05-24T03:04:26;14.55;;;7.65;;
25049;SDS011;13046;49.814;9.918;2023-05-24T03:06:52;14.65;;;6.72;;
25049;SDS011;13046;49.814;9.918;2023-05-24T03:09:18;10.32;;;6.78;;
25049;SDS011;13046;49.814;9.918;2023-05-24T03:11:44;12.02;;;7.45;;
25049;SDS011;13046;49.814;9.918;2023-05-24T03:14:10;14.88;;;8.07;;
25049;SDS011;13046;49.814;9.918;2023-05-24T03:16:38;16.83;;;7.65;;
25049;SDS011;13046;49.814;9.918;2023-05-24T03:19:03;15.20;;;7.05;;
25049;SDS011;13046;49.814;9.918;2023-05-24T03:21:30;12.48;;;6.82;;
25049;SDS011;13046;49.814;9.918;2023-05-24T03:23:56;14.25;;;7.22;;
25049;SDS011;13046;49.814;9.918;2023-05-24T03:26:22;15.18;;;6.53;;
25049;SDS011;13046;49.814;9.918;2023-05-24T03:28:47;10.25;;;6.85;;
25049;SDS011;13046;49.814;9.918;2023-05-24T03:31:17;11.40;;;6.85;;
25049;SDS011;13046;49.814;9.918;2023-05-24T03:33:45;13.52;;;6.65;;
25049;SDS011;13046;49.814;9.918;2023-05-24T03:36:11;12.15;;;7.45;;
25049;SDS011;13046;49.814;9.918;2023-05-24T03:38:37;12.15;;;7.07;;
25049;SDS011;13046;49.814;9.918;2023-05-24T03:41:02;15.25;;;7.75;;
25049;SDS011;13046;49.814;9.918;2023-05-24T03:43:28;12.43;;;7.40;;
25049;SDS011;13046;49.814;9.918;2023-05-24T03:45:56;10.40;;;7.30;;
25049;SDS011;13046;49.814;9.918;2023-05-24T03:48:22;11.30;;;7.30;;
25049;SDS011;13046;49.814;9.918;2023-05-24T03:50:49;9.07;;;7.15;;
25049;SDS011;13046;49.814;9.918;2023-05-24T03:53:16;14.65;;;7.57;;
25049;SDS011;13046;49.814;9.918;2023-05-24T03:55:41;11.05;;;7.80;;
25049;SDS011;13046;49.814;9.918;2023-05-24T03:58:07;17.90;;;8.00;;
25049;SDS011;13046;49.814;9.918;2023-05-24T04:00:33;16.33;;;7.50;;
25049;SDS011;13046;49.814;9.918;2023-05-24T04:03:00;14.13;;;7.72;;
25049;SDS011;13046;49.814;9.918;2023-05-24T04:05:27;15.52;;;7.35;;
25049;SDS011;13046;49.814;9.918;2023-05-24T04:07:54;15.38;;;6.97;;
25049;SDS011;13046;49.814;9.918;2023-05-24T04:10:20;12.63;;;7.00;;
25049;SDS011;13046;49.814;9.918;2023-05-24T04:12:47;8.07;;;6.25;;
25049;SDS011;13046;49.814;9.918;2023-05-24T04:15:13;12.98;;;6.45;;
25049;SDS011;13046;49.814;9.918;2023-05-24T04:17:42;9.82;;;6.22;;
25049;SDS011;13046;49.814;9.918;2023-05-24T04:20:09;16.05;;;6.13;;
25049;SDS011;13046;49.814;9.918;2023-05-24T04:22:36;15.05;;;7.07;;
25049;SDS011;13046;49.814;9.918;2023-05-24T04:25:03;12.77;;;6.70;;
25049;SDS011;13046;49.814;9.918;2023-05-24T04:27:30;13.20;;;6.45;;
25049;SDS011;13046;49.814;9.918;2023-05-24T04:29:56;15.65;;;6.25;;
25049;SDS011;13046;49.814;9.918;2023-05-24T04:32:22;13.85;;;6.45;;
25049;SDS011;13046;49.814;9.918;2023-05-24T04:34:48;14.10;;;7.40;;
25049;SDS011;13046;49.814;9.918;2023-05-24T04:37:16;16.25;;;7.10;;
25049;SDS011;13046;49.814;9.918;2023-05-24T04:39:44;14.75;;;6.20;;
25049;SDS011;13046;49.814;9.918;2023-05-24T04:42:10;15.20;;;6.57;;
25049;SDS011;13046;49.814;9.918;2023-05-24T04:44:37;10.57;;;8.00;;
25049;SDS011;13046;49.814;9.918;2023-05-24T04:47:04;9.70;;;5.93;;
25049;SDS011;13046;49.814;9.918;2023-05-24T04:49:30;10.43;;;6.55;;
25049;SDS011;13046;49.814;9.918;2023-05-24T04:51:56;12.02;;;6.53;;
25049;SDS011;13046;49.814;9.918;2023-05-24T04:54:22;15.95;;;6.85;;
25049;SDS011;13046;49.814;9.918;2023-05-24T04:56:48;12.98;;;5.50;;
25049;SDS011;13046;49.814;9.918;2023-05-24T04:59:13;10.73;;;5.47;;
25049;SDS011;13046;49.814;9.918;2023-05-24T05:01:39;28.42;;;8.98;;
25049;SDS011;13046;49.814;9.918;2023-05-24T05:04:05;18.38;;;7.70;;
25049;SDS011;13046;49.814;9.918;2023-05-24T05:06:31;13.48;;;5.75;;
25049;SDS011;13046;49.814;9.918;2023-05-24T05:09:02;18.35;;;6.10;;
25049;SDS011;13046;49.814;9.918;2023-05-24T05:11:35;13.95;;;6.95;;
25049;SDS011;13046;49.814;9.918;2023-05-24T05:14:01;18.67;;;7.13;;
25049;SDS011;13046;49.814;9.918;2023-05-24T05:16:27;15.88;;;6.50;;
25049;SDS011;13046;49.814;9.918;2023-05-24T05:18:52;16.52;;;7.10;;
25049;SDS011;13046;49.814;9.918;2023-05-24T05:21:18;15.80;;;6.20;;
25049;SDS011;13046;49.814;9.918;2023-05-24T05:23:44;16.55;;;6.35;;
25049;SDS011;13046;49.814;9.918;2023-05-24T05:26:10;18.13;;;8.13;;
25049;SDS011;13046;49.814;9.918;2023-05-24T05:28:36;17.08;;;6.15;;
25049;SDS011;13046;49.814;9.918;2023-05-24T05:31:02;13.98;;;6.82;;
25049;SDS011;13046;49.814;9.918;2023-05-24T05:33:29;20.40;;;6.28;;
25049;SDS011;13046;49.814;9.918;2023-05-24T05:35:56;12.20;;;6.03;;
25049;SDS011;13046;49.814;9.918;2023-05-24T05:38:22;20.55;;;7.15;;
25049;SDS011;13046;49.814;9.918;2023-05-24T05:40:47;9.75;;;5.63;;
25049;SDS011;13046;49.814;9.918;2023-05-24T05:43:13;13.57;;;6.22;;
25049;SDS011;13046;49.814;9.918;2023-05-24T05:45:39;8.82;;;6.10;;
25049;SDS011;13046;49.814;9.918;2023-05-24T05:48:05;17.70;;;7.20;;
25049;SDS011;13046;49.814;9.918;2023-05-24T05:50:30;17.08;;;6.72;;
25049;SDS011;13046;49.814;9.918;2023-05-24T05:52:56;19.50;;;6.63;;
25049;SDS011;13046;49.814;9.918;2023-05-24T05:55:22;19.77;;;7.07;;
25049;SDS011;13046;49.814;9.918;2023-05-24T05:57:48;14.05;;;7.05;;
25049;SDS011;13046;49.814;9.918;2023-05-24T06:00:14;12.70;;;6.32;;
25049;SDS011;13046;49.814;9.918;2023-05-24T06:02:40;13.88;;;6.13;;
25049;SDS011;13046;49.814;9.918;2023-05-24T06:05:06;11.32;;;5.45;;
25049;SDS011;13046;49.814;9.918;2023-05-24T06:07:32;13.95;;;6.05;;
25049;SDS011;13046;49.814;9.918;2023-05-24T06:09:58;12.98;;;5.78;;
25049;SDS011;13046;49.814;9.918;2023-05-24T06:12:24;17.75;;;7.00;;
25049;SDS011;13046;49.814;9.918;2023-05-24T06:14:50;20.58;;;6.30;;
25049;SDS011;13046;49.814;9.918;2023-05-24T06:17:16;14.77;;;6.47;;
25049;SDS011;13046;49.814;9.918;2023-05-24T06:19:43;16.00;;;6.47;;
25049;SDS011;13046;49.814;9.918;2023-05-24T06:22:08;11.20;;;7.30;;
25049;SDS011;13046;49.814;9.918;2023-05-24T06:24:34;16.17;;;6.65;;
25049;SDS011;13046;49.814;9.918;2023-05-24T06:27:00;9.43;;;5.30;;
25049;SDS011;13046;49.814;9.918;2023-05-24T06:29:26;10.23;;;5.90;;
25049;SDS011;13046;49.814;9.918;2023-05-24T06:31:52;12.18;;;5.55;;
25049;SDS011;13046;49.814;9.918;2023-05-24T06:34:17;15.98;;;6.03;;
25049;SDS011;13046;49.814;9.918;2023-05-24T06:36:47;13.00;;;6.93;;
25049;SDS011;13046;49.814;9.918;2023-05-24T06:39:14;17.70;;;6.85;;
25049;SDS011;13046;49.814;9.918;2023-05-24T06:41:41;13.82;;;5.72;;
25049;SDS011;13046;49.814;9.918;2023-05-24T06:44:08;17.90;;;6.30;;
25049;SDS011;13046;49.814;9.918;2023-05-24T06:46:34;16.95;;;5.93;;
25049;SDS011;13046;49.814;9.918;2023-05-24T06:49:00;12.13;;;5.15;;
25049;SDS011;13046;49.814;9.918;2023-05-24T06:51:25;12.13;;;5.80;;
25049;SDS011;13046;49.814;9.918;2023-05-24T06:53:51;13.30;;;5.93;;
25049;SDS011;13046;49.814;9.918;2023-05-24T06:56:17;11.43;;;5.57;;
25049;SDS011;13046;49.814;9.918;2023-05-24T06:58:42;15.70;;;6.07;;
25049;SDS011;13046;49.814;9.918;2023-05-24T07:01:08;10.80;;;5.60;;
25049;SDS011;13046;49.814;9.918;2023-05-24T07:03:34;10.60;;;5.13;;
25049;SDS011;13046;49.814;9.918;2023-05-24T07:06:01;13.75;;;5.90;;
25049;SDS011;13046;49.814;9.918;2023-05-24T07:08:27;10.02;;;6.13;;
25049;SDS011;13046;49.814;9.918;2023-05-24T07:10:53;30.38;;;8.73;;
25049;SDS011;13046;49.814;9.918;2023-05-24T07:13:20;13.25;;;6.97;;
25049;SDS011;13046;49.814;9.918;2023-05-24T07:15:45;17.05;;;6.40;;
25049;SDS011;13046;49.814;9.918;2023-05-24T07:18:11;21.77;;;6.50;;
25049;SDS011;13046;49.814;9.918;2023-05-24T07:20:38;19.95;;;6.57;;
25049;SDS011;13046;49.814;9.918;2023-05-24T07:23:03;16.30;;;5.68;;
25049;SDS011;13046;49.814;9.918;2023-05-24T07:25:31;16.92;;;6.07;;
25049;SDS011;13046;49.814;9.918;2023-05-24T07:27:57;9.40;;;5.10;;
25049;SDS011;13046;49.814;9.918;2023-05-24T07:30:24;13.48;;;5.72;;
25049;SDS011;13046;49.814;9.918;2023-05-24T07:32:50;11.82;;;5.35;;
25049;SDS011;13046;49.814;9.918;2023-05-24T07:35:15;12.02;;;6.35;;
25049;SDS011;13046;49.814;9.918;2023-05-24T07:37:41;21.60;;;6.93;;
25049;SDS011;13046;49.814;9.918;2023-05-24T07:40:07;8.90;;;4.53;;
25049;SDS011;13046;49.814;9.918;2023-05-24T07:42:37;11.77;;;4.97;;
25049;SDS011;13046;49.814;9.918;2023-05-24T07:45:03;9.63;;;4.65;;
25049;SDS011;13046;49.814;9.918;2023-05-24T07:47:31;14.07;;;4.38;;
25049;SDS011;13046;49.814;9.918;2023-05-24T07:49:56;10.93;;;4.05;;
25049;SDS011;13046;49.814;9.918;2023-05-24T07:52:22;10.27;;;6.05;;
25049;SDS011;13046;49.814;9.918;2023-05-24T07:54:48;12.63;;;6.03;;
25049;SDS011;13046;49.814;9.918;2023-05-24T07:57:14;14.40;;;4.70;;
25049;SDS011;13046;49.814;9.918;2023-05-24T07:59:39;19.17;;;5.30;;
25049;SDS011;13046;49.814;9.918;2023-05-24T08:02:05;13.77;;;4.65;;
25049;SDS011;13046;49.814;9.918;2023-05-24T08:04:32;7.97;;;3.72;;
25049;SDS011;13046;49.814;9.918;2023-05-24T08:06:58;14.25;;;5.15;;
25049;SDS011;13046;49.814;9.918;2023-05-24T08:09:26;15.10;;;4.10;;
25049;SDS011;13046;49.814;9.918;2023-05-24T08:11:53;16.13;;;5.05;;
25049;SDS011;13046;49.814;9.918;2023-05-24T08:14:20;10.00;;;4.72;;
25049;SDS011;13046;49.814;9.918;2023-05-24T08:16:46;14.60;;;4.38;;
25049;SDS011;13046;49.814;9.918;2023-05-24T08:19:12;13.65;;;3.70;;
25049;SDS011;13046;49.814;9.918;2023-05-24T08:21:38;13.73;;;4.50;;
25049;SDS011;13046;49.814;9.918;2023-05-24T08:24:05;15.77;;;4.85;;
25049;SDS011;13046;49.814;9.918;2023-05-24T08:26:31;11.90;;;5.65;;
25049;SDS011;13046;49.814;9.918;2023-05-24T08:28:57;9.90;;;4.22;;
25049;SDS011;13046;49.814;9.918;2023-05-24T08:31:23;13.30;;;4.95;;
25049;SDS011;13046;49.814;9.918;2023-05-24T08:33:48;21.30;;;5.53;;
25049;SDS011;13046;49.814;9.918;2023-05-24T08:36:15;10.95;;;4.57;;
25049;SDS011;13046;49.814;9.918;2023-05-24T08:38:41;10.02;;;4.82;;
25049;SDS011;13046;49.814;9.918;2023-05-24T08:41:09;12.00;;;5.20;;
25049;SDS011;13046;49.814;9.918;2023-05-24T08:43:35;10.65;;;5.07;;
25049;SDS011;13046;49.814;9.918;2023-05-24T08:46:02;11.52;;;4.03;;
25049;SDS011;13046;49.814;9.918;2023-05-24T08:48:29;10.45;;;4.10;;
25049;SDS011;13046;49.814;9.918;2023-05-24T08:50:55;7.75;;;4.38;;
25049;SDS011;13046;49.814;9.918;2023-05-24T08:53:22;8.50;;;4.45;;
25049;SDS011;13046;49.814;9.918;2023-05-24T08:55:48;15.80;;;5.00;;
25049;SDS011;13046;49.814;9.918;2023-05-24T08:58:18;13.95;;;3.95;;
25049;SDS011;13046;49.814;9.918;2023-05-24T09:00:44;14.50;;;4.93;;
25049;SDS011;13046;49.814;9.918;2023-05-24T09:03:11;9.13;;;5.05;;
25049;SDS011;13046;49.814;9.918;2023-05-24T09:05:37;11.07;;;5.22;;
25049;SDS011;13046;49.814;9.918;2023-05-24T09:08:04;10.13;;;3.70;;
25049;SDS011;13046;49.814;9.918;2023-05-24T09:10:31;13.93;;;5.15;;
25049;SDS011;13046;49.814;9.918;2023-05-24T09:12:57;8.70;;;4.30;;
25049;SDS011;13046;49.814;9.918;2023-05-24T09:15:26;10.40;;;4.07;;
25049;SDS011;13046;49.814;9.918;2023-05-24T09:17:52;9.27;;;4.15;;
25049;SDS011;13046;49.814;9.918;2023-05-24T09:20:19;8.10;;;4.72;;
25049;SDS011;13046;49.814;9.918;2023-05-24T09:22:49;8.95;;;4.60;;
25049;SDS011;13046;49.814;9.918;2023-05-24T09:25:16;9.35;;;4.82;;
25049;SDS011;13046;49.814;9.918;2023-05-24T09:27:47;6.53;;;4.75;;
25049;SDS011;13046;49.814;9.918;2023-05-24T09:30:17;9.77;;;3.55;;
25049;SDS011;13046;49.814;9.918;2023-05-24T09:32:59;17.55;;;4.20;;
25049;SDS011;13046;49.814;9.918;2023-05-24T09:35:26;9.38;;;3.90;;
25049;SDS011;13046;49.814;9.918;2023-05-24T09:37:55;7.25;;;3.47;;
25049;SDS011;13046;49.814;9.918;2023-05-24T09:40:23;10.05;;;3.80;;
25049;SDS011;13046;49.814;9.918;2023-05-24T09:43:05;11.75;;;4.45;;
25049;SDS011;13046;49.814;9.918;2023-05-24T09:45:44;8.10;;;4.57;;
25049;SDS011;13046;49.814;9.918;2023-05-24T09:48:11;11.57;;;3.83;;
25049;SDS011;13046;49.814;9.918;2023-05-24T09:50:38;9.75;;;4.20;;
25049;SDS011;13046;49.814;9.918;2023-05-24T09:53:04;12.07;;;4.07;;
25049;SDS011;13046;49.814;9.918;2023-05-24T09:55:30;9.07;;;4.90;;
25049;SDS011;13046;49.814;9.918;2023-05-24T09:58:01;11.93;;;4.30;;
25049;SDS011;13046;49.814;9.918;2023-05-24T10:00:28;9.48;;;4.50;;
25049;SDS011;13046;49.814;9.918;2023-05-24T10:03:03;9.60;;;3.97;;
25049;SDS011;13046;49.814;9.918;2023-05-24T10:05:35;8.75;;;3.72;;
25049;SDS011;13046;49.814;9.918;2023-05-24T10:08:01;12.60;;;4.13;;
25049;SDS011;13046;49.814;9.918;2023-05-24T10:10:29;10.85;;;4.18;;
25049;SDS011;13046;49.814;9.918;2023-05-24T10:12:56;11.85;;;4.07;;
25049;SDS011;13046;49.814;9.918;2023-05-24T10:15:25;8.27;;;3.58;;
25049;SDS011;13046;49.814;9.918;2023-05-24T10:17:55;8.00;;;4.03;;
25049;SDS011;13046;49.814;9.918;2023-05-24T10:20:24;10.93;;;5.10;;
25049;SDS011;13046;49.814;9.918;2023-05-24T10:22:51;12.45;;;4.63;;
25049;SDS011;13046;49.814;9.918;2023-05-24T10:25:20;11.77;;;4.28;;
25049;SDS011;13046;49.814;9.918;2023-05-24T10:27:49;9.25;;;3.60;;
25049;SDS011;13046;49.814;9.918;2023-05-24T10:30:21;11.73;;;4.78;;
25049;SDS011;13046;49.814;9.918;2023-05-24T10:33:08;7.50;;;4.13;;
25049;SDS011;13046;49.814;9.918;2023-05-24T10:35:38;10.25;;;4.35;;
25049;SDS011;13046;49.814;9.918;2023-05-24T10:38:05;10.43;;;5.47;;
25049;SDS011;13046;49.814;9.918;2023-05-24T10:40:33;6.68;;;4.10;;
25049;SDS011;13046;49.814;9.918;2023-05-24T10:43:04;11.57;;;4.43;;
25049;SDS011;13046;49.814;9.918;2023-05-24T10:45:40;12.10;;;5.30;;
25049;SDS011;13046;49.814;9.918;2023-05-24T10:50:38;8.40;;;3.97;;
25049;SDS011;13046;49.814;9.918;2023-05-24T10:53:11;12.35;;;4.30;;
25049;SDS011;13046;49.814;9.918;2023-05-24T10:55:56;11.30;;;4.00;;
25049;SDS011;13046;49.814;9.918;2023-05-24T11:01:36;15.93;;;4.45;;
25049;SDS011;13046;49.814;9.918;2023-05-24T11:04:08;7.78;;;3.90;;
25049;SDS011;13046;49.814;9.918;2023-05-24T11:06:48;7.03;;;3.90;;
25049;SDS011;13046;49.814;9.918;2023-05-24T11:09:28;7.28;;;5.18;;
25049;SDS011;13046;49.814;9.918;2023-05-24T11:11:57;10.20;;;4.18;;
25049;SDS011;13046;49.814;9.918;2023-05-24T11:14:26;11.40;;;4.53;;
25049;SDS011;13046;49.814;9.918;2023-05-24T11:16:53;10.50;;;4.40;;
25049;SDS011;13046;49.814;9.918;2023-05-24T11:19:20;7.43;;;4.70;;
25049;SDS011;13046;49.814;9.918;2023-05-24T11:21:52;12.50;;;5.72;;
25049;SDS011;13046;49.814;9.918;2023-05-24T11:24:22;9.30;;;4.70;;
25049;SDS011;13046;49.814;9.918;2023-05-24T11:26:49;8.77;;;4.05;;
25049;SDS011;13046;49.814;9.918;2023-05-24T11:29:16;9.90;;;4.25;;
25049;SDS011;13046;49.814;9.918;2023-05-24T11:32:18;13.48;;;4.10;;
25049;SDS011;13046;49.814;9.918;2023-05-24T11:34:40;8.30;;;3.78;;
25049;SDS011;13046;49.814;9.918;2023-05-24T11:37:09;10.68;;;4.10;;
25049;SDS011;13046;49.814;9.918;2023-05-24T11:39:35;13.52;;;4.88;;
25049;SDS011;13046;49.814;9.918;2023-05-24T11:42:05;7.28;;;3.92;;
25049;SDS011;13046;49.814;9.918;2023-05-24T11:44:32;12.60;;;4.40;;
25049;SDS011;13046;49.814;9.918;2023-05-24T11:46:59;9.15;;;3.88;;
25049;SDS011;13046;49.814;9.918;2023-05-24T11:49:26;9.38;;;3.72;;
25049;SDS011;13046;49.814;9.918;2023-05-24T11:51:56;10.85;;;4.68;;
25049;SDS011;13046;49.814;9.918;2023-05-24T11:54:22;11.95;;;3.85;;
25049;SDS011;13046;49.814;9.918;2023-05-24T11:56:48;12.63;;;5.03;;
25049;SDS011;13046;49.814;9.918;2023-05-24T11:59:25;14.55;;;5.85;;
25049;SDS011;13046;49.814;9.918;2023-05-24T12:01:59;14.63;;;5.88;;
25049;SDS011;13046;49.814;9.918;2023-05-24T12:04:27;8.10;;;3.53;;
25049;SDS011;13046;49.814;9.918;2023-05-24T12:06:53;10.05;;;3.28;;
25049;SDS011;13046;49.814;9.918;2023-05-24T12:09:19;5.78;;;3.10;;
25049;SDS011;13046;49.814;9.918;2023-05-24T12:11:46;6.63;;;3.38;;
25049;SDS011;13046;49.814;9.918;2023-05-24T12:14:13;7.28;;;3.75;;
25049;SDS011;13046;49.814;9.918;2023-05-24T12:16:41;8.55;;;3.38;;
25049;SDS011;13046;49.814;9.918;2023-05-24T12:19:11;12.20;;;4.03;;
25049;SDS011;13046;49.814;9.918;2023-05-24T12:21:47;7.47;;;3.78;;
25049;SDS011;13046;49.814;9.918;2023-05-24T12:24:14;14.95;;;3.75;;
25049;SDS011;13046;49.814;9.918;2023-05-24T12:26:42;9.85;;;3.70;;
25049;SDS011;13046;49.814;9.918;2023-05-24T12:29:09;8.88;;;3.22;;
25049;SDS011;13046;49.814;9.918;2023-05-24T12:31:57;10.50;;;3.90;;
25049;SDS011;13046;49.814;9.918;2023-05-24T12:34:22;9.73;;;3.53;;
25049;SDS011;13046;49.814;9.918;2023-05-24T12:36:48;10.20;;;3.85;;
25049;SDS011;13046;49.814;9.918;2023-05-24T12:39:21;9.48;;;3.90;;
25049;SDS011;13046;49.814;9.918;2023-05-24T12:41:52;6.78;;;3.42;;
25049;SDS011;13046;49.814;9.918;2023-05-24T12:44:26;12.13;;;3.88;;
25049;SDS011;13046;49.814;9.918;2023-05-24T12:46:56;16.67;;;5.95;;
25049;SDS011;13046;49.814;9.918;2023-05-24T12:49:23;9.30;;;3.78;;
25049;SDS011;13046;49.814;9.918;2023-05-24T12:51:49;8.27;;;4.00;;
25049;SDS011;13046;49.814;9.918;2023-05-24T12:54:21;7.25;;;3.33;;
25049;SDS011;13046;49.814;9.918;2023-05-24T12:56:48;12.27;;;5.50;;
25049;SDS011;13046;49.814;9.918;2023-05-24T12:59:14;13.68;;;4.22;;
25049;SDS011;13046;49.814;9.918;2023-05-24T13:01:40;10.95;;;3.65;;
25049;SDS011;13046;49.814;9.918;2023-05-24T13:04:06;12.70;;;4.65;;
25049;SDS011;13046;49.814;9.918;2023-05-24T13:06:31;8.38;;;3.58;;
25049;SDS011;13046;49.814;9.918;2023-05-24T13:08:57;13.50;;;4.50;;
25049;SDS011;13046;49.814;9.918;2023-05-24T13:11:22;8.07;;;3.63;;
25049;SDS011;13046;49.814;9.918;2023-05-24T13:13:49;12.25;;;4.00;;
25049;SDS011;13046;49.814;9.918;2023-05-24T13:16:16;10.88;;;3.85;;
25049;SDS011;13046;49.814;9.918;2023-05-24T13:18:42;10.57;;;3.55;;
25049;SDS011;13046;49.814;9.918;2023-05-24T13:21:08;13.32;;;3.85;;
25049;SDS011;13046;49.814;9.918;2023-05-24T13:23:34;9.82;;;3.50;;
25049;SDS011;13046;49.814;9.918;2023-05-24T13:26:01;11.63;;;3.85;;
25049;SDS011;13046;49.814;9.918;2023-05-24T13:28:28;7.32;;;3.95;;
25049;SDS011;13046;49.814;9.918;2023-05-24T13:30:54;11.98;;;4.68;;
25049;SDS011;13046;49.814;9.918;2023-05-24T13:33:20;11.98;;;5.10;;
25049;SDS011;13046;49.814;9.918;2023-05-24T13:35:45;13.02;;;4.68;;
25049;SDS011;13046;49.814;9.918;2023-05-24T13:38:11;10.98;;;4.07;;
25049;SDS011;13046;49.814;9.918;2023-05-24T13:40:37;9.70;;;4.25;;
25049;SDS011;13046;49.814;9.918;2023-05-24T13:43:03;11.20;;;4.70;;
25049;SDS011;13046;49.814;9.918;2023-05-24T13:45:29;15.60;;;6.47;;
25049;SDS011;13046;49.814;9.918;2023-05-24T13:47:57;11.35;;;4.80;;
25049;SDS011;13046;49.814;9.918;2023-05-24T13:50:28;10.95;;;4.35;;
25049;SDS011;13046;49.814;9.918;2023-05-24T13:52:58;15.50;;;4.60;;
25049;SDS011;13046;49.814;9.918;2023-05-24T13:55:26;8.60;;;4.18;;
25049;SDS011;13046;49.814;9.918;2023-05-24T13:57:53;9.02;;;4.20;;
25049;SDS011;13046;49.814;9.918;2023-05-24T14:00:20;13.07;;;4.03;;
25049;SDS011;13046;49.814;9.918;2023-05-24T14:02:46;10.48;;;3.03;;
25049;SDS011;13046;49.814;9.918;2023-05-24T14:05:12;11.27;;;4.15;;
25049;SDS011;13046;49.814;9.918;2023-05-24T14:07:38;8.98;;;3.67;;
25049;SDS011;13046;49.814;9.918;2023-05-24T14:10:04;13.05;;;4.50;;
25049;SDS011;13046;49.814;9.918;2023-05-24T14:12:31;13.00;;;4.53;;
25049;SDS011;13046;49.814;9.918;2023-05-24T14:14:57;12.98;;;4.32;;
25049;SDS011;13046;49.814;9.918;2023-05-24T14:17:23;10.23;;;3.95;;
25049;SDS011;13046;49.814;9.918;2023-05-24T14:19:48;10.45;;;3.42;;
25049;SDS011;13046;49.814;9.918;2023-05-24T14:22:14;9.27;;;4.32;;
25049;SDS011;13046;49.814;9.918;2023-05-24T14:24:40;10.02;;;4.28;;
25049;SDS011;13046;49.814;9.918;2023-05-24T14:27:05;8.40;;;3.88;;
25049;SDS011;13046;49.814;9.918;2023-05-24T14:29:31;10.80;;;4.43;;
25049;SDS011;13046;49.814;9.918;2023-05-24T14:31:57;8.95;;;3.88;;
25049;SDS011;13046;49.814;9.918;2023-05-24T14:34:23;9.10;;;4.20;;
25049;SDS011;13046;49.814;9.918;2023-05-24T14:36:48;9.05;;;3.70;;
25049;SDS011;13046;49.814;9.918;2023-05-24T14:39:14;13.98;;;4.78;;
25049;SDS011;13046;49.814;9.918;2023-05-24T14:41:40;11.85;;;4.93;;
25049;SDS011;13046;49.814;9.918;2023-05-24T14:44:06;10.70;;;5.03;;
25049;SDS011;13046;49.814;9.918;2023-05-24T14:46:31;12.10;;;4.50;;
25049;SDS011;13046;49.814;9.918;2023-05-24T14:48:57;8.43;;;4.43;;
25049;SDS011;13046;49.814;9.918;2023-05-24T14:51:23;8.80;;;3.83;;